createdAt,value
2023-03-04T01:15:02.153Z,34.33
2023-03-04T01:17:31.424Z,34.10
2023-03-04T01:20:00.585Z,34.28
2023-03-04T01:22:29.697Z,34.13
2023-03-04T01:24:59.007Z,34.17
2023-03-04T01:27:28.342Z,35.50
2023-03-04T01:29:57.486Z,32.58
2023-03-04T01:32:26.766Z,33.78
2023-03-04T01:34:55.888Z,33.53
2023-03-04T01:37:25.056Z,31.88
2023-03-04T01:39:54.341Z,30.48
2023-03-04T01:42:27.469Z,31.02
2023-03-04T01:44:56.652Z,30.60
2023-03-04T01:47:31.190Z,29.83
2023-03-04T01:50:02.972Z,33.25
2023-03-04T01:52:32.302Z,29.67
2023-03-04T01:55:01.781Z,30.90
2023-03-04T01:57:37.533Z,30.38
2023-03-04T02:00:34.041Z,30.83
2023-03-04T02:03:13.533Z,29.13
2023-03-04T02:05:47.168Z,31.05
2023-03-04T02:08:19.330Z,30.05
2023-03-04T02:10:49.660Z,30.95
2023-03-04T02:13:20.002Z,32.28
2023-03-04T02:15:50.177Z,31.63
2023-03-04T02:18:25.903Z,30.38
2023-03-04T02:21:30.033Z,30.83
2023-03-04T02:24:27.822Z,29.85
2023-03-04T02:26:57.081Z,30.73
2023-03-04T02:29:26.547Z,31.23
2023-03-04T02:31:56.877Z,31.40
2023-03-04T02:34:38.091Z,31.70
2023-03-04T02:37:08.558Z,29.08
2023-03-04T02:39:45.016Z,29.77
2023-03-04T02:42:14.588Z,29.58
2023-03-04T02:44:49.353Z,29.75
2023-03-04T02:47:20.430Z,26.67
2023-03-04T02:49:50.152Z,29.38
2023-03-04T02:52:26.005Z,25.98
2023-03-04T02:54:55.156Z,24.33
2023-03-04T02:57:24.392Z,23.30
2023-03-04T02:59:53.610Z,23.55
2023-03-04T03:02:22.790Z,23.30
2023-03-04T03:04:52.003Z,23.15
2023-03-04T03:07:21.231Z,22.98
2023-03-04T03:09:50.459Z,23.92
2023-03-04T03:12:19.624Z,22.60
2023-03-04T03:14:48.910Z,22.90
2023-03-04T03:17:18.149Z,25.33
2023-03-04T03:19:47.318Z,23.92
2023-03-04T03:22:16.482Z,22.35
2023-03-04T03:24:45.761Z,23.23
2023-03-04T03:27:14.993Z,23.55
2023-03-04T03:29:44.271Z,22.30
2023-03-04T03:32:13.506Z,22.65
2023-03-04T03:34:42.704Z,23.02
2023-03-04T03:37:12.126Z,23.70
2023-03-04T03:39:41.417Z,23.67
2023-03-04T03:42:10.748Z,23.10
2023-03-04T03:44:39.924Z,23.00
2023-03-04T03:47:09.155Z,23.52
2023-03-04T03:49:38.375Z,21.98
2023-03-04T03:52:09.317Z,22.95
2023-03-04T03:54:39.037Z,22.58
2023-03-04T03:57:08.485Z,22.73
2023-03-04T03:59:37.669Z,22.90
2023-03-04T04:02:07.223Z,22.85
2023-03-04T04:04:36.450Z,22.80
2023-03-04T04:07:05.632Z,21.35
2023-03-04T04:09:34.888Z,22.63
2023-03-04T04:12:07.233Z,22.95
2023-03-04T04:14:36.929Z,22.10
2023-03-04T04:17:06.479Z,20.98
2023-03-04T04:19:36.074Z,22.00
2023-03-04T04:22:05.780Z,22.35
2023-03-04T04:24:35.319Z,21.88
2023-03-04T04:27:05.460Z,22.92
2023-03-04T04:29:34.625Z,21.67
2023-03-04T04:32:03.961Z,21.83
2023-03-04T04:34:33.106Z,22.52
2023-03-04T04:37:02.462Z,21.45
2023-03-04T04:39:31.876Z,22.00
2023-03-04T04:42:01.004Z,21.75
2023-03-04T04:44:30.154Z,22.13
2023-03-04T04:46:59.241Z,20.60
2023-03-04T04:49:28.355Z,21.08
2023-03-04T04:51:57.466Z,20.35
2023-03-04T04:54:26.688Z,24.35
2023-03-04T04:56:56.185Z,20.80
2023-03-04T04:59:25.640Z,21.40
2023-03-04T05:01:54.800Z,21.35
2023-03-04T05:04:23.950Z,21.10
2023-03-04T05:06:53.040Z,20.15
2023-03-04T05:09:23.946Z,21.02
2023-03-04T05:11:53.395Z,20.90
2023-03-04T05:14:22.688Z,20.25
2023-03-04T05:16:53.931Z,20.92
2023-03-04T05:19:23.680Z,19.60
2023-03-04T05:21:52.906Z,20.98
2023-03-04T05:24:22.280Z,20.40
2023-03-04T05:26:51.505Z,20.48
2023-03-04T05:29:20.763Z,20.10
2023-03-04T05:31:50.009Z,20.83
2023-03-04T05:34:19.367Z,22.13
2023-03-04T05:36:48.609Z,20.60
2023-03-04T05:39:17.946Z,19.75
2023-03-04T05:41:47.182Z,18.52
2023-03-04T05:44:16.404Z,18.98
2023-03-04T05:46:45.647Z,18.52
2023-03-04T05:49:14.955Z,19.77
2023-03-04T05:51:44.129Z,18.77
2023-03-04T05:54:13.389Z,18.75
2023-03-04T05:56:42.923Z,20.27
2023-03-04T05:59:12.210Z,19.48
2023-03-04T06:01:41.432Z,19.88
2023-03-04T06:04:10.698Z,19.98
2023-03-04T06:06:39.888Z,20.65
2023-03-04T06:09:09.212Z,21.35
2023-03-04T06:11:38.451Z,19.63
2023-03-04T06:14:08.289Z,20.73
2023-03-04T06:16:37.673Z,18.75
2023-03-04T06:19:06.743Z,19.55
2023-03-04T06:21:35.876Z,18.40
2023-03-04T06:24:05.086Z,18.48
2023-03-04T06:26:34.189Z,17.80
2023-03-04T06:29:03.294Z,17.90
2023-03-04T06:31:32.471Z,18.90
2023-03-04T06:34:01.580Z,18.38
2023-03-04T06:36:30.758Z,17.42
2023-03-04T06:38:59.865Z,18.38
2023-03-04T06:41:28.968Z,18.10
2023-03-04T06:43:58.349Z,17.77
2023-03-04T06:46:30.419Z,17.85
2023-03-04T06:48:59.689Z,18.70
2023-03-04T06:51:29.569Z,19.77
2023-03-04T06:53:59.060Z,18.10
2023-03-04T06:56:28.239Z,19.65
2023-03-04T06:58:57.400Z,18.50
2023-03-04T07:01:29.829Z,18.55
2023-03-04T07:03:59.914Z,18.73
2023-03-04T07:06:30.424Z,18.42
2023-03-04T07:09:00.134Z,17.38
2023-03-04T07:11:29.544Z,18.75
2023-03-04T07:13:58.718Z,18.23
2023-03-04T07:16:27.899Z,16.98
2023-03-04T07:18:57.056Z,17.92
2023-03-04T07:21:26.292Z,18.25
2023-03-04T07:23:55.724Z,21.75
2023-03-04T07:26:25.545Z,18.15
2023-03-04T07:28:55.548Z,18.92
2023-03-04T07:31:35.097Z,19.00
2023-03-04T07:34:09.277Z,18.90
2023-03-04T07:36:39.590Z,17.65
2023-03-04T07:39:09.626Z,17.77
2023-03-04T07:41:38.807Z,18.67
2023-03-04T07:44:12.786Z,17.67
2023-03-04T07:46:42.841Z,17.10
2023-03-04T07:49:15.152Z,19.80
2023-03-04T07:51:44.305Z,18.77
2023-03-04T07:54:13.478Z,18.27
2023-03-04T07:56:42.664Z,17.48
2023-03-04T07:59:11.791Z,18.25
2023-03-04T08:01:41.292Z,18.52
2023-03-04T08:04:10.712Z,18.02
2023-03-04T08:06:42.154Z,17.45
2023-03-04T08:09:14.619Z,18.98
2023-03-04T08:11:44.679Z,17.88
2023-03-04T08:14:17.159Z,18.73
2023-03-04T08:16:46.365Z,17.75
2023-03-04T08:19:16.177Z,18.30
2023-03-04T08:21:45.786Z,17.42
2023-03-04T08:24:15.035Z,17.70
2023-03-04T08:26:49.152Z,17.55
2023-03-04T08:29:25.012Z,18.75
2023-03-04T08:31:56.623Z,17.48
2023-03-04T08:34:30.394Z,17.23
2023-03-04T08:37:00.049Z,17.45
2023-03-04T08:39:29.553Z,18.10
2023-03-04T08:41:58.636Z,18.85
2023-03-04T08:44:27.944Z,17.92
2023-03-04T08:46:57.096Z,18.08
2023-03-04T08:49:26.234Z,17.98
2023-03-04T08:51:55.354Z,18.10
2023-03-04T08:54:24.495Z,17.80
2023-03-04T08:56:53.635Z,19.35
2023-03-04T08:59:22.817Z,19.90
2023-03-04T09:01:52.070Z,18.92
2023-03-04T09:04:21.212Z,17.70
2023-03-04T09:06:51.475Z,18.42
2023-03-04T09:09:22.083Z,18.50
2023-03-04T09:11:51.314Z,17.77
2023-03-04T09:14:20.506Z,18.65
2023-03-04T09:16:49.637Z,18.73
2023-03-04T09:19:18.857Z,20.15
2023-03-04T09:21:47.999Z,18.83
2023-03-04T09:24:17.424Z,19.25
2023-03-04T09:26:46.989Z,17.95
2023-03-04T09:29:16.096Z,19.33
2023-03-04T09:31:45.418Z,19.17
2023-03-04T09:34:14.802Z,17.75
2023-03-04T09:36:44.042Z,21.08
2023-03-04T09:39:13.536Z,19.65
2023-03-04T09:41:58.920Z,20.10
2023-03-04T09:44:42.677Z,19.80
2023-03-04T09:47:19.351Z,21.27
2023-03-04T09:50:10.421Z,20.33
2023-03-04T09:53:28.929Z,20.00
2023-03-04T09:55:58.767Z,18.95
2023-03-04T09:58:58.118Z,21.00
2023-03-04T10:01:43.092Z,21.67
2023-03-04T10:04:58.422Z,21.83
2023-03-04T10:07:41.036Z,20.15
2023-03-04T10:10:20.873Z,21.98
2023-03-04T10:12:53.644Z,22.05
2023-03-04T10:15:41.777Z,23.27
2023-03-04T10:21:23.464Z,20.75
2023-03-04T10:23:54.527Z,21.17
2023-03-04T10:26:26.592Z,22.60
2023-03-04T10:28:55.817Z,22.88
2023-03-04T10:31:42.948Z,22.02
2023-03-04T10:34:17.971Z,22.90
2023-03-04T10:37:09.802Z,21.52
2023-03-04T10:39:50.342Z,22.90
2023-03-04T10:42:20.672Z,23.13
2023-03-04T10:44:56.342Z,22.67
2023-03-04T10:47:31.391Z,22.77
2023-03-04T10:50:06.915Z,21.70
2023-03-04T10:52:54.160Z,23.42
2023-03-04T10:55:45.317Z,21.88
2023-03-04T10:58:20.206Z,20.00
2023-03-04T11:01:18.586Z,21.80
2023-03-04T11:03:52.244Z,21.75
2023-03-04T11:06:24.132Z,20.95
2023-03-04T11:09:01.846Z,21.25
2023-03-04T11:11:45.413Z,20.15
2023-03-04T11:14:45.905Z,21.15
2023-03-04T11:17:45.344Z,20.85
2023-03-04T11:20:37.350Z,20.55
2023-03-04T11:23:46.560Z,20.35
2023-03-04T11:26:36.520Z,20.83
2023-03-04T11:30:19.216Z,21.05
2023-03-04T11:32:53.006Z,21.75
2023-03-04T11:35:43.598Z,20.33
2023-03-04T11:38:27.006Z,21.30
2023-03-04T11:41:41.473Z,21.83
2023-03-04T11:47:38.142Z,21.27
2023-03-04T11:53:21.154Z,21.70
2023-03-04T11:56:17.237Z,22.20
2023-03-04T11:59:26.556Z,23.52
2023-03-04T12:02:24.686Z,23.35
2023-03-04T12:08:38.089Z,21.13
2023-03-04T12:11:41.333Z,22.70
2023-03-04T12:14:27.332Z,24.08
2023-03-04T12:17:38.835Z,21.83
2023-03-04T12:20:47.471Z,23.40
2023-03-04T12:27:03.254Z,22.83
2023-03-04T12:29:44.339Z,22.75
2023-03-04T12:32:53.024Z,21.35
2023-03-04T12:35:54.654Z,22.38
2023-03-04T12:39:27.263Z,23.40
2023-03-04T12:42:11.074Z,21.70
2023-03-04T12:44:52.257Z,24.13
2023-03-04T12:47:44.548Z,24.50
2023-03-04T12:50:58.029Z,25.38
2023-03-04T12:53:49.363Z,28.92
2023-03-04T12:56:52.151Z,28.50
2023-03-04T12:59:25.126Z,27.25
2023-03-04T13:02:38.397Z,26.23
2023-03-04T13:05:26.400Z,27.35
2023-03-04T13:08:16.287Z,26.33
2023-03-04T13:10:49.098Z,25.67
2023-03-04T13:13:40.936Z,24.60
2023-03-04T13:16:40.248Z,24.58
2023-03-04T13:19:53.807Z,25.60
2023-03-04T13:22:41.544Z,24.50
2023-03-04T13:25:31.611Z,25.52
2023-03-04T13:28:13.846Z,26.52
2023-03-04T13:31:13.560Z,25.75
2023-03-04T13:33:54.227Z,25.08
2023-03-04T13:36:58.016Z,25.67
2023-03-04T13:39:30.663Z,26.08
2023-03-04T13:42:00.707Z,23.80
2023-03-04T13:45:02.187Z,24.70
2023-03-04T13:47:46.776Z,27.08
2023-03-04T13:50:47.496Z,24.67
2023-03-04T13:53:40.820Z,27.25
2023-03-04T13:56:24.016Z,26.80
2023-03-04T13:59:04.065Z,27.65
2023-03-04T14:01:51.010Z,29.08
2023-03-04T14:04:36.321Z,30.17
2023-03-04T14:07:28.068Z,29.02
2023-03-04T14:10:14.798Z,28.77
2023-03-04T14:12:59.333Z,26.80
2023-03-04T14:15:32.936Z,27.63
2023-03-04T14:18:06.100Z,27.30
2023-03-04T14:20:39.688Z,27.55
2023-03-04T14:23:33.180Z,26.70
2023-03-04T14:26:15.782Z,27.30
2023-03-04T14:28:51.023Z,25.50
2023-03-04T14:31:23.956Z,23.90
2023-03-04T14:34:05.664Z,22.83
2023-03-04T14:36:38.309Z,25.23
2023-03-04T14:39:09.386Z,23.30
2023-03-04T14:41:44.162Z,22.98
2023-03-04T14:44:40.550Z,24.02
2023-03-04T14:47:41.934Z,22.50
2023-03-04T14:50:19.187Z,22.80
2023-03-04T14:52:55.051Z,22.77
2023-03-04T14:55:29.447Z,22.35
2023-03-04T14:58:26.212Z,20.92
2023-03-04T15:01:27.636Z,19.85
2023-03-04T15:04:12.133Z,21.17
2023-03-04T15:06:52.516Z,19.90
2023-03-04T15:09:28.874Z,18.83
2023-03-04T15:12:07.522Z,18.50
2023-03-04T15:14:52.913Z,18.38
2023-03-04T15:18:00.000Z,19.10
2023-03-04T15:20:33.283Z,18.13
2023-03-04T15:23:08.245Z,18.70
2023-03-04T15:25:38.053Z,18.02
2023-03-04T15:28:18.025Z,18.80
2023-03-04T15:30:48.486Z,17.83
2023-03-04T15:33:19.952Z,18.27
2023-03-04T15:36:04.849Z,17.80
2023-03-04T15:38:34.282Z,18.55
2023-03-04T15:41:04.158Z,18.42
2023-03-04T15:43:33.373Z,18.42
2023-03-04T15:46:02.617Z,18.20
2023-03-04T15:48:32.039Z,18.33
2023-03-04T15:51:04.543Z,18.95
2023-03-04T15:53:43.169Z,17.33
2023-03-04T15:56:20.463Z,19.20
2023-03-04T15:58:58.142Z,19.60
2023-03-04T16:01:27.895Z,20.43
2023-03-04T16:03:57.162Z,19.63
2023-03-04T16:06:31.985Z,21.35
2023-03-04T16:09:04.245Z,20.17
2023-03-04T16:11:45.343Z,20.23
2023-03-04T16:14:18.604Z,20.73
2023-03-04T16:16:48.042Z,20.67
2023-03-04T16:19:17.467Z,19.83
2023-03-04T16:21:47.434Z,21.70
2023-03-04T16:24:22.943Z,20.52
2023-03-04T16:26:53.747Z,21.42
2023-03-04T16:29:23.005Z,23.30
2023-03-04T16:31:52.295Z,21.75
2023-03-04T16:34:21.471Z,21.05
2023-03-04T16:36:50.821Z,20.88
2023-03-04T16:39:26.961Z,22.15
2023-03-04T16:41:56.324Z,23.00
2023-03-04T16:44:25.573Z,22.48
2023-03-04T16:46:55.591Z,25.90
2023-03-04T16:49:24.781Z,25.42
2023-03-04T16:51:54.073Z,26.50
2023-03-04T16:54:41.771Z,25.90
2023-03-04T16:57:12.018Z,27.13
2023-03-04T16:59:41.552Z,26.65
2023-03-04T17:02:31.457Z,27.17
2023-03-04T17:05:00.719Z,27.15
2023-03-04T17:07:29.987Z,25.20
2023-03-04T17:09:59.273Z,25.77
2023-03-04T17:12:28.719Z,25.02
2023-03-04T17:14:57.968Z,26.00
2023-03-04T17:17:27.147Z,26.52
2023-03-04T17:19:56.341Z,28.13
2023-03-04T17:22:26.505Z,28.48
2023-03-04T17:24:55.715Z,25.05
2023-03-04T17:27:24.927Z,24.90
2023-03-04T17:29:54.293Z,23.95
2023-03-04T17:32:24.034Z,21.90
2023-03-04T17:34:56.786Z,22.23
2023-03-04T17:37:26.740Z,20.95
2023-03-04T17:39:55.996Z,19.75
2023-03-04T17:42:25.259Z,19.50
2023-03-04T17:44:54.505Z,21.45
2023-03-04T17:47:23.802Z,18.65
2023-03-04T17:49:53.137Z,19.38
2023-03-04T17:52:22.378Z,19.80
2023-03-04T17:54:51.689Z,19.35
2023-03-04T17:57:20.945Z,19.48
2023-03-04T17:59:50.159Z,18.67
2023-03-04T18:02:19.544Z,19.77
2023-03-04T18:04:51.140Z,20.92
2023-03-04T18:07:20.489Z,20.73
2023-03-04T18:09:49.668Z,19.45
2023-03-04T18:12:18.862Z,20.60
2023-03-04T18:14:48.110Z,19.60
2023-03-04T18:17:17.312Z,19.75
2023-03-04T18:19:46.521Z,19.50
2023-03-04T18:22:15.712Z,19.50
2023-03-04T18:24:44.981Z,20.02
2023-03-04T18:27:14.169Z,20.13
2023-03-04T18:29:43.389Z,19.33
2023-03-04T18:32:12.917Z,20.25
2023-03-04T18:34:42.122Z,18.95
2023-03-04T18:37:12.581Z,19.08
2023-03-04T18:39:41.904Z,19.23
2023-03-04T18:42:11.164Z,18.35
2023-03-04T18:44:40.498Z,18.92
2023-03-04T18:47:11.567Z,20.38
2023-03-04T18:49:47.162Z,18.40
2023-03-04T18:52:16.891Z,18.70
2023-03-04T18:54:46.163Z,18.05
2023-03-04T18:57:17.796Z,21.38
2023-03-04T19:00:01.856Z,17.83
2023-03-04T19:02:46.363Z,17.23
2023-03-04T19:05:27.734Z,18.38
2023-03-04T19:07:57.281Z,17.67
2023-03-04T19:10:27.041Z,17.48
2023-03-04T19:12:58.423Z,17.20
2023-03-04T19:15:29.172Z,17.73
2023-03-04T19:17:58.420Z,17.27
2023-03-04T19:20:27.628Z,17.05
2023-03-04T19:22:56.863Z,17.92
2023-03-04T19:25:26.076Z,17.70
2023-03-04T19:27:56.690Z,17.60
2023-03-04T19:30:26.257Z,18.20
2023-03-04T19:32:56.058Z,17.13
2023-03-04T19:35:25.339Z,16.83
2023-03-04T19:37:54.551Z,18.55
2023-03-04T19:40:24.270Z,18.00
2023-03-04T19:42:53.471Z,17.42
2023-03-04T19:45:22.701Z,16.20
2023-03-04T19:47:51.919Z,16.90
2023-03-04T19:50:21.278Z,17.98
2023-03-04T19:52:50.460Z,18.20
2023-03-04T19:55:19.841Z,18.35
2023-03-04T19:57:49.034Z,18.75
2023-03-04T20:00:18.827Z,18.90
2023-03-04T20:02:50.041Z,19.58
2023-03-04T20:05:19.393Z,20.55
2023-03-04T20:07:48.587Z,19.80
2023-03-04T20:10:19.836Z,20.70
2023-03-04T20:12:49.056Z,21.88
2023-03-04T20:15:18.370Z,20.77
2023-03-04T20:17:47.578Z,22.15
2023-03-04T20:20:17.476Z,21.83
2023-03-04T20:22:46.693Z,21.98
2023-03-04T20:25:16.016Z,22.08
2023-03-04T20:27:45.217Z,21.67
2023-03-04T20:30:15.541Z,22.02
2023-03-04T20:32:44.833Z,21.52
2023-03-04T20:35:16.053Z,22.50
2023-03-04T20:37:45.411Z,21.58
2023-03-04T20:40:15.783Z,21.52
2023-03-04T20:42:45.054Z,20.50
2023-03-04T20:45:14.348Z,21.85
2023-03-04T20:47:43.595Z,22.38
2023-03-04T20:50:13.287Z,22.52
2023-03-04T20:52:42.476Z,22.88
2023-03-04T20:55:12.296Z,21.63
2023-03-04T20:57:41.510Z,23.25
2023-03-04T21:00:11.841Z,23.08
2023-03-04T21:02:41.118Z,22.75
2023-03-04T21:05:10.707Z,22.60
2023-03-04T21:07:39.938Z,21.30
2023-03-04T21:10:09.889Z,22.33
2023-03-04T21:12:39.098Z,21.42
2023-03-04T21:15:09.365Z,23.35
2023-03-04T21:17:38.610Z,24.48
2023-03-04T21:20:08.619Z,23.05
2023-03-04T21:22:37.836Z,23.02
2023-03-04T21:25:07.797Z,21.40
2023-03-04T21:27:43.556Z,21.33
2023-03-04T21:30:13.810Z,22.65
2023-03-04T21:32:43.800Z,21.13
2023-03-04T21:35:16.210Z,21.23
2023-03-04T21:37:45.457Z,20.42
2023-03-04T21:40:15.249Z,21.75
2023-03-04T21:42:44.558Z,19.75
2023-03-04T21:45:13.823Z,21.92
2023-03-04T21:47:43.089Z,21.45
2023-03-04T21:50:12.949Z,22.10
2023-03-04T21:52:42.339Z,20.70
2023-03-04T21:55:12.150Z,21.05
2023-03-04T21:57:41.335Z,24.17
2023-03-04T22:00:11.635Z,24.02
2023-03-04T22:02:41.010Z,22.90
2023-03-04T22:05:10.642Z,26.83
2023-03-04T22:07:39.881Z,27.05
2023-03-04T22:10:09.815Z,23.95
2023-03-04T22:12:39.003Z,24.10
2023-03-04T22:15:10.052Z,24.52
2023-03-04T22:17:39.427Z,24.48
2023-03-04T22:20:09.531Z,25.70
2023-03-04T22:22:38.721Z,29.48
2023-03-04T22:25:08.521Z,24.58
2023-03-04T22:27:37.718Z,25.75
2023-03-04T22:30:07.616Z,25.85
2023-03-04T22:32:36.879Z,25.63
2023-03-04T22:35:06.647Z,25.80
2023-03-04T22:37:35.838Z,26.02
2023-03-04T22:40:06.115Z,26.60
2023-03-04T22:42:36.453Z,24.85
2023-03-04T22:45:06.093Z,26.17
2023-03-04T22:47:35.365Z,26.20
2023-03-04T22:50:05.263Z,26.50
2023-03-04T22:52:34.564Z,27.83
2023-03-04T22:55:03.916Z,26.33
2023-03-04T22:57:33.432Z,28.42
2023-03-04T23:00:02.736Z,29.20
2023-03-04T23:02:32.020Z,28.67
2023-03-04T23:05:01.261Z,28.38
2023-03-04T23:07:30.510Z,27.38
2023-03-04T23:09:59.797Z,28.65
2023-03-04T23:12:29.003Z,27.13
2023-03-04T23:14:59.146Z,26.35
2023-03-04T23:17:28.792Z,27.42
2023-03-04T23:19:57.934Z,26.73
2023-03-04T23:22:27.175Z,27.50
2023-03-04T23:24:58.576Z,26.17
2023-03-04T23:27:27.849Z,26.77
2023-03-04T23:29:56.981Z,26.73
2023-03-04T23:32:26.186Z,26.90
2023-03-04T23:34:56.405Z,33.67
2023-03-04T23:37:25.888Z,31.30
2023-03-04T23:39:54.977Z,32.20
2023-03-04T23:42:24.107Z,32.80
2023-03-04T23:44:53.321Z,31.95
2023-03-04T23:47:22.456Z,29.88
2023-03-04T23:49:51.650Z,31.85
2023-03-04T23:52:20.812Z,30.10
2023-03-04T23:54:50.012Z,29.45
2023-03-04T23:57:19.257Z,29.13
2023-03-04T23:59:48.361Z,30.75
